CFE37 EGLC-EIDW
Flight info
| Callsign | CFE37 |
|---|---|
| Flight time | N/A |
| Altitude | 34000 |
| Route | SAXBI N27 HEN N84 DIDZA N14 OKTAD DCT MEDOG DCT LANON L18 LIPGO |
| Aircraft | E190/M-SDE3GILORVW/S |
Departure
| Time | N/A |
|---|---|
| Airport | London City Airport (EGLC) |
Arrival
| Time | 2026-05-04 23:50 |
|---|---|
| Airport | Dublin Airport (EIDW) |
| Time | Latitude | Longitude | Altitude | Speed | Heading |
|---|---|---|---|---|---|
| 2026-05-04 23:36 | 53.04914 | -5.47304 | 21317 ft | 364 kts | 313° |
| 2026-05-04 23:36 | 53.06610 | -5.50244 | 20798 ft | 347 kts | 321° |
| 2026-05-04 23:37 | 53.08538 | -5.52449 | 20208 ft | 329 kts | 329° |
| 2026-05-04 23:37 | 53.10464 | -5.54388 | 19585 ft | 319 kts | 329° |
| 2026-05-04 23:37 | 53.12337 | -5.56320 | 18994 ft | 315 kts | 328° |
| 2026-05-04 23:37 | 53.14187 | -5.58246 | 18346 ft | 314 kts | 327° |
| 2026-05-04 23:38 | 53.16023 | -5.60168 | 17535 ft | 308 kts | 327° |
| 2026-05-04 23:38 | 53.17825 | -5.62059 | 16747 ft | 303 kts | 327° |
| 2026-05-04 23:38 | 53.19727 | -5.63317 | 15959 ft | 299 kts | 353° |
| 2026-05-04 23:38 | 53.21761 | -5.62896 | 15203 ft | 297 kts | 23° |
| 2026-05-04 23:39 | 53.23408 | -5.60901 | 14487 ft | 293 kts | 44° |
| 2026-05-04 23:39 | 53.24880 | -5.58580 | 13771 ft | 289 kts | 39° |
| 2026-05-04 23:39 | 53.26417 | -5.56431 | 12984 ft | 287 kts | 38° |
| 2026-05-04 23:39 | 53.27967 | -5.54343 | 12200 ft | 285 kts | 37° |
| 2026-05-04 23:40 | 53.29642 | -5.52672 | 11424 ft | 279 kts | 18° |
| 2026-05-04 23:40 | 53.31497 | -5.51843 | 10691 ft | 275 kts | 10° |
| 2026-05-04 23:40 | 53.33360 | -5.51164 | 9962 ft | 273 kts | 11° |
| 2026-05-04 23:40 | 53.35183 | -5.50479 | 9179 ft | 271 kts | 11° |
| 2026-05-04 23:41 | 53.37017 | -5.49838 | 8387 ft | 267 kts | 4° |
| 2026-05-04 23:41 | 53.38800 | -5.50312 | 7615 ft | 260 kts | 332° |
| 2026-05-04 23:41 | 53.40093 | -5.52314 | 6871 ft | 255 kts | 299° |
| 2026-05-04 23:41 | 53.40464 | -5.55146 | 6315 ft | 246 kts | 265° |
| 2026-05-04 23:42 | 53.40266 | -5.57879 | 6204 ft | 232 kts | 266° |
| 2026-05-04 23:42 | 53.40157 | -5.60579 | 6080 ft | 234 kts | 267° |
| 2026-05-04 23:42 | 53.39616 | -5.63131 | 5866 ft | 237 kts | 239° |
| 2026-05-04 23:42 | 53.38692 | -5.65359 | 5720 ft | 234 kts | 244° |
| 2026-05-04 23:43 | 53.38456 | -5.67953 | 5492 ft | 226 kts | 282° |
| 2026-05-04 23:43 | 53.38855 | -5.70478 | 5364 ft | 224 kts | 284° |
| 2026-05-04 23:43 | 53.39061 | -5.73060 | 5206 ft | 224 kts | 274° |
| 2026-05-04 23:43 | 53.39145 | -5.75664 | 5049 ft | 224 kts | 276° |
| 2026-05-04 23:44 | 53.39333 | -5.78246 | 4896 ft | 223 kts | 278° |
| 2026-05-04 23:44 | 53.39500 | -5.80824 | 4729 ft | 223 kts | 276° |
| 2026-05-04 23:44 | 53.39633 | -5.83407 | 4559 ft | 223 kts | 276° |
| 2026-05-04 23:44 | 53.39791 | -5.85999 | 4389 ft | 223 kts | 277° |
| 2026-05-04 23:45 | 53.39946 | -5.88552 | 4219 ft | 224 kts | 277° |
| 2026-05-04 23:45 | 53.40094 | -5.91154 | 4051 ft | 224 kts | 277° |
| 2026-05-04 23:45 | 53.40246 | -5.93754 | 3883 ft | 225 kts | 277° |
| 2026-05-04 23:45 | 53.40399 | -5.96365 | 3664 ft | 227 kts | 277° |
| 2026-05-04 23:46 | 53.40552 | -5.99017 | 3363 ft | 230 kts | 277° |
| 2026-05-04 23:46 | 53.40704 | -6.01668 | 3031 ft | 225 kts | 277° |
| 2026-05-04 23:46 | 53.40850 | -6.04213 | 2731 ft | 213 kts | 277° |
| 2026-05-04 23:46 | 53.40987 | -6.06595 | 2472 ft | 197 kts | 277° |
| 2026-05-04 23:47 | 53.41111 | -6.08775 | 2185 ft | 181 kts | 277° |
| 2026-05-04 23:47 | 53.41227 | -6.10810 | 1977 ft | 176 kts | 277° |
| 2026-05-04 23:47 | 53.41338 | -6.12780 | 1728 ft | 163 kts | 277° |
| 2026-05-04 23:47 | 53.41437 | -6.14541 | 1533 ft | 141 kts | 277° |
| 2026-05-04 23:48 | 53.41526 | -6.16108 | 1309 ft | 131 kts | 277° |
| 2026-05-04 23:48 | 53.41610 | -6.17608 | 1136 ft | 128 kts | 276° |
| 2026-05-04 23:48 | 53.41697 | -6.19095 | 956 ft | 126 kts | 276° |
| 2026-05-04 23:48 | 53.41779 | -6.20536 | 763 ft | 123 kts | 276° |
| 2026-05-04 23:49 | 53.41841 | -6.21955 | 616 ft | 122 kts | 276° |
| 2026-05-04 23:49 | 53.41921 | -6.23342 | 475 ft | 122 kts | 277° |
| 2026-05-04 23:49 | 53.42001 | -6.24759 | 289 ft | 121 kts | 277° |
| 2026-05-04 23:49 | 53.42084 | -6.26098 | 210 ft | 105 kts | 275° |
| 2026-05-04 23:50 | 53.42133 | -6.27021 | 209 ft | 47 kts | 275° |
| 2026-05-04 23:50 | 53.42159 | -6.27475 | 211 ft | 37 kts | 275° |
| 2026-05-04 23:50 | 53.42194 | -6.27808 | 212 ft | 26 kts | 290° |
| 2026-05-04 23:50 | 53.42275 | -6.28066 | 213 ft | 16 kts | 300° |
| 2026-05-04 23:51 | 53.42327 | -6.28132 | 213 ft | 10 kts | 354° |
| 2026-05-04 23:51 | 53.42363 | -6.28057 | 215 ft | 10 kts | 92° |
| 2026-05-04 23:51 | 53.42356 | -6.27929 | 210 ft | 12 kts | 95° |
| 2026-05-04 23:51 | 53.42347 | -6.27776 | 217 ft | 14 kts | 95° |
| 2026-05-04 23:52 | 53.42337 | -6.27597 | 209 ft | 16 kts | 95° |
| 2026-05-04 23:52 | 53.42326 | -6.27394 | 209 ft | 18 kts | 95° |
| 2026-05-04 23:52 | 53.42315 | -6.27169 | 212 ft | 20 kts | 95° |
| 2026-05-04 23:52 | 53.42301 | -6.26925 | 210 ft | 22 kts | 95° |
| 2026-05-04 23:53 | 53.42287 | -6.26663 | 210 ft | 23 kts | 95° |
| 2026-05-04 23:53 | 53.42271 | -6.26385 | 212 ft | 25 kts | 96° |
| 2026-05-04 23:53 | 53.42258 | -6.26128 | 210 ft | 9 kts | 95° |
| 2026-05-04 23:53 | 53.42263 | -6.26008 | 212 ft | 12 kts | 74° |
| 2026-05-04 23:54 | 53.42310 | -6.25889 | 213 ft | 14 kts | 49° |
| 2026-05-04 23:54 | 53.42377 | -6.25763 | 218 ft | 15 kts | 44° |
| 2026-05-04 23:54 | 53.42459 | -6.25633 | 210 ft | 17 kts | 45° |
| 2026-05-04 23:54 | 53.42547 | -6.25482 | 209 ft | 19 kts | 45° |
| 2026-05-04 23:55 | 53.42632 | -6.25337 | 213 ft | 10 kts | 45° |
| 2026-05-04 23:55 | 53.42641 | -6.25321 | 215 ft | 0 kts | 45° |
| 2026-05-04 23:55 | 53.42699 | -6.25222 | 213 ft | 12 kts | 45° |
| 2026-05-04 23:56 | 53.42709 | -6.25125 | 213 ft | 12 kts | 122° |
| 2026-05-04 23:56 | 53.42619 | -6.25048 | 214 ft | 18 kts | 157° |
| 2026-05-04 23:56 | 53.42547 | -6.24963 | 210 ft | 12 kts | 99° |
| 2026-05-04 23:56 | 53.42614 | -6.24880 | 210 ft | 16 kts | 342° |
| 2026-05-04 23:57 | 53.42692 | -6.24805 | 210 ft | 7 kts | 52° |
| 2026-05-04 23:57 | 53.42717 | -6.24746 | 213 ft | 6 kts | 62° |
| 2026-05-04 23:57 | 53.42718 | -6.24674 | 210 ft | 6 kts | 130° |
| 2026-05-04 23:57 | 53.42681 | -6.24644 | 215 ft | 3 kts | 156° |
| 2026-05-04 23:58 | 53.42671 | -6.24636 | 212 ft | 1 kts | 156° |
| 2026-05-04 23:58 | 53.42670 | -6.24635 | 211 ft | 0 kts | 156° |